Time;durP1;ratioP1;P1;durP2;ratioP2;P2;SDS_P1;SDS_P2;PMS_P1;PMS_P2;Temp;Humidity;BMP_temperature;BMP_pressure;BME280_temperature;BME280_humidity;BME280_pressure;Samples;Min_cycle;Max_cycle;Signal;HPM_P1;HPM_P2
2023/07/04 00:02:04;;;;;;;8.60;2.47;;;;;;;;;;5009890;28;20111;-60
2023/07/04 00:04:31;;;;;;;10.20;2.88;;;;;;;;;;5009968;28;20046;-64
2023/07/04 00:06:57;;;;;;;9.57;2.83;;;;;;;;;;5005559;28;20046;-60
2023/07/04 00:09:23;;;;;;;6.88;2.20;;;;;;;;;;5009868;28;20045;-60
2023/07/04 00:11:50;;;;;;;8.18;2.97;;;;;;;;;;5008524;28;20038;-59
2023/07/04 00:14:16;;;;;;;8.32;3.10;;;;;;;;;;5008480;28;20113;-60
2023/07/04 00:16:45;;;;;;;7.65;2.58;;;;;;;;;;5008655;28;20072;-65
2023/07/04 00:19:11;;;;;;;8.32;2.33;;;;;;;;;;5008590;28;20034;-63
2023/07/04 00:21:38;;;;;;;9.10;2.63;;;;;;;;;;5009895;28;20518;-63
2023/07/04 00:24:05;;;;;;;10.60;2.92;;;;;;;;;;5009502;28;20479;-60
2023/07/04 00:26:31;;;;;;;6.80;2.20;;;;;;;;;;5009322;28;20041;-62
2023/07/04 00:28:58;;;;;;;7.18;2.38;;;;;;;;;;5009996;28;20034;-61
2023/07/04 00:31:25;;;;;;;6.95;2.03;;;;;;;;;;5009645;28;20038;-61
2023/07/04 00:33:51;;;;;;;9.10;2.35;;;;;;;;;;5009685;28;20045;-61
2023/07/04 00:36:18;;;;;;;11.10;2.58;;;;;;;;;;5008142;28;20088;-61
2023/07/04 00:38:48;;;;;;;7.45;2.45;;;;;;;;;;5014171;28;20116;-61
2023/07/04 00:41:20;;;;;;;8.02;2.40;;;;;;;;;;5008592;28;20041;-62
2023/07/04 00:44:19;;;;;;;11.70;2.88;;;;;;;;;;5009413;28;20046;-63
2023/07/04 00:47:04;;;;;;;11.25;2.72;;;;;;;;;;5009112;28;20053;-61
2023/07/04 00:49:38;;;;;;;7.15;2.15;;;;;;;;;;5009716;28;20042;-65
2023/07/04 00:52:11;;;;;;;7.70;2.25;;;;;;;;;;5009594;28;20042;-62
2023/07/04 00:54:44;;;;;;;7.85;2.20;;;;;;;;;;5009394;28;20061;-64
2023/07/04 00:57:13;;;;;;;10.50;2.20;;;;;;;;;;5007813;28;20117;-63
2023/07/04 00:59:46;;;;;;;7.38;2.03;;;;;;;;;;4998071;28;20046;-65
2023/07/04 01:02:15;;;;;;;7.60;2.13;;;;;;;;;;5002561;28;20041;-62
2023/07/04 01:04:43;;;;;;;7.72;2.30;;;;;;;;;;5008750;28;20042;-62
2023/07/04 01:07:09;;;;;;;6.43;2.33;;;;;;;;;;5007709;28;20053;-62
2023/07/04 01:09:36;;;;;;;8.90;2.35;;;;;;;;;;5007635;28;20121;-60
2023/07/04 01:12:03;;;;;;;9.63;3.25;;;;;;;;;;5009139;28;20191;-62
2023/07/04 01:14:29;;;;;;;8.43;2.80;;;;;;;;;;5009150;28;20117;-63
2023/07/04 01:16:55;;;;;;;6.82;2.10;;;;;;;;;;5008926;28;20036;-60
2023/07/04 01:19:25;;;;;;;8.40;2.15;;;;;;;;;;5006842;28;20038;-61
2023/07/04 01:21:55;;;;;;;6.70;2.15;;;;;;;;;;5001369;28;20088;-61
2023/07/04 01:24:39;;;;;;;7.40;2.42;;;;;;;;;;5009026;28;20041;-62
2023/07/04 01:27:05;;;;;;;8.90;2.45;;;;;;;;;;5004425;28;20400;-61
2023/07/04 01:29:36;;;;;;;8.50;2.50;;;;;;;;;;5012443;28;20042;-62
2023/07/04 01:32:02;;;;;;;11.93;2.60;;;;;;;;;;5012838;28;20403;-62
2023/07/04 01:34:28;;;;;;;8.27;2.08;;;;;;;;;;5012269;28;20451;-60
2023/07/04 01:36:56;;;;;;;7.15;1.90;;;;;;;;;;5010938;28;20547;-59
2023/07/04 01:39:22;;;;;;;7.68;1.92;;;;;;;;;;5012989;28;20117;-59
2023/07/04 01:41:49;;;;;;;8.90;2.13;;;;;;;;;;5012396;28;20041;-58
2023/07/04 01:44:16;;;;;;;5.78;1.80;;;;;;;;;;5011602;28;20041;-60
2023/07/04 01:46:42;;;;;;;7.20;2.05;;;;;;;;;;5012290;28;20503;-60
2023/07/04 01:49:09;;;;;;;6.10;1.60;;;;;;;;;;5012947;28;20061;-58
2023/07/04 01:51:37;;;;;;;5.28;1.83;;;;;;;;;;5012509;28;20530;-60
2023/07/04 01:54:03;;;;;;;6.60;2.22;;;;;;;;;;5012584;28;20038;-57
2023/07/04 01:56:30;;;;;;;7.85;2.00;;;;;;;;;;5011965;28;20049;-57
2023/07/04 01:58:56;;;;;;;5.47;2.10;;;;;;;;;;5012256;28;20049;-61
2023/07/04 02:01:25;;;;;;;7.55;2.00;;;;;;;;;;5012204;28;20034;-58
2023/07/04 02:03:51;;;;;;;7.85;2.55;;;;;;;;;;5011762;28;20038;-62
2023/07/04 02:06:17;;;;;;;6.40;1.58;;;;;;;;;;5012086;28;20036;-62
2023/07/04 02:08:43;;;;;;;5.88;1.63;;;;;;;;;;5011483;28;20466;-60
2023/07/04 02:11:10;;;;;;;6.55;1.50;;;;;;;;;;5012267;28;20407;-62
2023/07/04 02:13:36;;;;;;;7.45;1.60;;;;;;;;;;5011287;28;20042;-61
2023/07/04 02:16:02;;;;;;;5.80;1.90;;;;;;;;;;5011895;28;20092;-61
2023/07/04 02:18:28;;;;;;;7.38;1.65;;;;;;;;;;5011776;28;20064;-64
2023/07/04 02:20:54;;;;;;;5.50;1.83;;;;;;;;;;5011971;28;20080;-59
2023/07/04 02:23:20;;;;;;;6.50;1.83;;;;;;;;;;5011841;28;20042;-60
2023/07/04 02:25:48;;;;;;;5.20;1.55;;;;;;;;;;5011145;28;20121;-61
2023/07/04 02:28:14;;;;;;;6.50;1.65;;;;;;;;;;5011693;28;20103;-63
2023/07/04 02:30:42;;;;;;;5.70;1.90;;;;;;;;;;5011542;28;20046;-60
2023/07/04 02:33:08;;;;;;;6.97;1.58;;;;;;;;;;5011681;28;20137;-58
2023/07/04 02:35:34;;;;;;;8.60;1.90;;;;;;;;;;5011269;28;20041;-58
2023/07/04 02:38:00;;;;;;;7.18;1.98;;;;;;;;;;5009627;28;20038;-58
2023/07/04 02:40:26;;;;;;;5.55;1.52;;;;;;;;;;5011532;28;20097;-60
2023/07/04 02:42:52;;;;;;;5.63;1.45;;;;;;;;;;5010735;28;20049;-63
2023/07/04 02:45:18;;;;;;;7.15;1.52;;;;;;;;;;5011647;28;20046;-57
2023/07/04 02:47:44;;;;;;;10.15;2.17;;;;;;;;;;5010349;28;20052;-60
2023/07/04 02:50:10;;;;;;;7.57;1.80;;;;;;;;;;5011287;28;20129;-60
2023/07/04 02:52:36;;;;;;;5.47;1.85;;;;;;;;;;5010930;28;20046;-61
2023/07/04 02:55:02;;;;;;;5.57;1.85;;;;;;;;;;5009891;28;20088;-60
2023/07/04 02:57:28;;;;;;;9.07;2.50;;;;;;;;;;5007811;28;20488;-61
2023/07/04 02:59:55;;;;;;;8.23;1.83;;;;;;;;;;5010526;28;20038;-62
2023/07/04 03:02:21;;;;;;;6.28;2.10;;;;;;;;;;5010683;28;20049;-62
2023/07/04 03:04:51;;;;;;;5.82;1.40;;;;;;;;;;5010881;28;20046;-61
2023/07/04 03:07:17;;;;;;;4.22;1.20;;;;;;;;;;5010557;28;20038;-62
2023/07/04 03:09:43;;;;;;;5.55;1.50;;;;;;;;;;5011072;28;20050;-63
2023/07/04 03:12:09;;;;;;;3.15;1.15;;;;;;;;;;5009177;28;20052;-62
2023/07/04 03:14:35;;;;;;;5.45;1.38;;;;;;;;;;5006455;28;20099;-64
2023/07/04 03:17:01;;;;;;;2.88;1.00;;;;;;;;;;5009111;28;20492;-65
2023/07/04 03:19:27;;;;;;;5.03;1.25;;;;;;;;;;5010663;28;20058;-66
2023/07/04 03:21:53;;;;;;;4.22;1.10;;;;;;;;;;5010402;28;20040;-68
2023/07/04 03:24:20;;;;;;;4.30;1.55;;;;;;;;;;5010321;28;20089;-66
2023/07/04 03:26:46;;;;;;;4.10;1.10;;;;;;;;;;5008264;28;20171;-63
2023/07/04 03:29:12;;;;;;;2.97;0.95;;;;;;;;;;5004857;28;20400;-64
2023/07/04 03:31:38;;;;;;;4.95;1.10;;;;;;;;;;5010283;28;20176;-64
2023/07/04 03:34:05;;;;;;;4.85;1.20;;;;;;;;;;5009264;28;20141;-64
2023/07/04 03:36:31;;;;;;;2.38;0.90;;;;;;;;;;5009647;28;20147;-64
2023/07/04 03:38:57;;;;;;;3.85;1.20;;;;;;;;;;5009338;28;20484;-63
2023/07/04 03:41:23;;;;;;;3.83;1.20;;;;;;;;;;5009253;28;20034;-63
2023/07/04 03:43:49;;;;;;;3.95;1.10;;;;;;;;;;5010360;28;20045;-65
2023/07/04 03:46:15;;;;;;;3.45;1.70;;;;;;;;;;5010077;28;20069;-62
2023/07/04 03:48:42;;;;;;;3.90;1.20;;;;;;;;;;5009915;28;20161;-63
2023/07/04 03:51:08;;;;;;;4.63;1.10;;;;;;;;;;5009350;28;20109;-63
2023/07/04 03:53:37;;;;;;;3.67;1.10;;;;;;;;;;5009875;28;20121;-62
2023/07/04 03:56:04;;;;;;;5.38;1.40;;;;;;;;;;5007994;28;20060;-63
2023/07/04 03:58:30;;;;;;;5.90;1.58;;;;;;;;;;5009741;28;20121;-62
2023/07/04 04:00:56;;;;;;;4.93;1.35;;;;;;;;;;5009525;28;20096;-63
2023/07/04 04:03:24;;;;;;;4.70;1.10;;;;;;;;;;5009210;28;20042;-63
2023/07/04 04:05:50;;;;;;;4.22;1.23;;;;;;;;;;5008412;28;20088;-65
2023/07/04 04:08:16;;;;;;;3.75;1.20;;;;;;;;;;5010175;28;20042;-65
2023/07/04 04:10:42;;;;;;;4.95;1.30;;;;;;;;;;5009805;28;20045;-67
2023/07/04 04:13:08;;;;;;;5.43;1.35;;;;;;;;;;5009973;28;20107;-62
2023/07/04 04:15:34;;;;;;;5.13;1.38;;;;;;;;;;5009517;28;20045;-62
2023/07/04 04:18:00;;;;;;;8.50;1.63;;;;;;;;;;5008431;28;20219;-62
2023/07/04 04:20:26;;;;;;;6.15;1.55;;;;;;;;;;5010027;28;20564;-62
2023/07/04 04:22:53;;;;;;;4.22;1.25;;;;;;;;;;5000480;28;20468;-62
2023/07/04 04:25:19;;;;;;;8.18;1.60;;;;;;;;;;5007982;28;20404;-64
2023/07/04 04:27:46;;;;;;;9.32;1.70;;;;;;;;;;5001324;28;20061;-64
2023/07/04 04:30:12;;;;;;;7.55;1.63;;;;;;;;;;4999818;28;20491;-65
2023/07/04 04:32:39;;;;;;;7.25;2.10;;;;;;;;;;5006320;28;20050;-63
2023/07/04 04:35:05;;;;;;;5.43;1.30;;;;;;;;;;5003827;28;20093;-68
2023/07/04 04:37:32;;;;;;;3.92;1.50;;;;;;;;;;5009266;28;20048;-68
2023/07/04 04:39:59;;;;;;;5.80;1.50;;;;;;;;;;5009435;28;20065;-63
2023/07/04 04:42:26;;;;;;;7.95;1.55;;;;;;;;;;5009535;28;20046;-63
2023/07/04 04:44:55;;;;;;;7.15;2.10;;;;;;;;;;5009179;28;20091;-64
2023/07/04 04:47:24;;;;;;;4.85;1.63;;;;;;;;;;5009040;28;20404;-61
2023/07/04 04:49:51;;;;;;;8.63;1.80;;;;;;;;;;5009475;28;20054;-62
2023/07/04 04:52:21;;;;;;;9.10;2.25;;;;;;;;;;5005623;28;20046;-62
2023/07/04 04:54:47;;;;;;;8.10;2.00;;;;;;;;;;4992502;28;20105;-64
2023/07/04 04:57:14;;;;;;;6.93;2.00;;;;;;;;;;5000672;28;20116;-64
2023/07/04 04:59:40;;;;;;;5.70;1.60;;;;;;;;;;4992135;28;20525;-64
2023/07/04 05:02:06;;;;;;;10.88;2.08;;;;;;;;;;4994649;28;20487;-62
2023/07/04 05:04:33;;;;;;;8.00;1.65;;;;;;;;;;5004896;28;20096;-62
2023/07/04 05:07:00;;;;;;;4.50;1.70;;;;;;;;;;5003723;28;20064;-65
2023/07/04 05:09:26;;;;;;;6.90;1.67;;;;;;;;;;5006736;28;20488;-63
2023/07/04 05:11:52;;;;;;;7.50;2.10;;;;;;;;;;5007184;28;20049;-63
2023/07/04 05:14:18;;;;;;;6.40;1.63;;;;;;;;;;5000566;28;20137;-63
2023/07/04 05:16:44;;;;;;;11.15;2.10;;;;;;;;;;5002804;28;20038;-65
2023/07/04 05:19:10;;;;;;;9.70;1.80;;;;;;;;;;5005999;28;20114;-61
2023/07/04 05:21:36;;;;;;;6.35;1.70;;;;;;;;;;5009919;28;20069;-59
2023/07/04 05:24:02;;;;;;;6.45;1.90;;;;;;;;;;5010864;28;20048;-62
2023/07/04 05:26:29;;;;;;;8.07;1.70;;;;;;;;;;5012962;28;20121;-63
2023/07/04 05:28:56;;;;;;;11.25;2.30;;;;;;;;;;5012772;28;20045;-61
2023/07/04 05:31:24;;;;;;;9.07;2.00;;;;;;;;;;5012972;28;20044;-61
2023/07/04 05:33:51;;;;;;;5.53;1.23;;;;;;;;;;5012138;28;20125;-60
2023/07/04 05:36:22;;;;;;;6.05;1.65;;;;;;;;;;5011375;28;20042;-61
2023/07/04 05:38:49;;;;;;;7.53;1.60;;;;;;;;;;5012131;28;20461;-61
2023/07/04 05:41:16;;;;;;;6.53;1.88;;;;;;;;;;5012532;28;20034;-60
2023/07/04 05:43:43;;;;;;;8.18;1.92;;;;;;;;;;5011621;28;20076;-61
2023/07/04 05:46:10;;;;;;;6.32;1.73;;;;;;;;;;5005397;28;20048;-60
2023/07/04 05:48:36;;;;;;;8.15;2.28;;;;;;;;;;5002092;28;20328;-62
2023/07/04 05:51:06;;;;;;;6.32;1.63;;;;;;;;;;5009149;28;20512;-64
2023/07/04 05:53:33;;;;;;;6.45;1.40;;;;;;;;;;5007680;28;20087;-62
2023/07/04 05:56:07;;;;;;;6.15;1.70;;;;;;;;;;5006747;28;20038;-62
2023/07/04 05:58:33;;;;;;;9.13;1.70;;;;;;;;;;5004821;28;20042;-62
2023/07/04 06:01:11;;;;;;;10.32;1.58;;;;;;;;;;5004845;28;20277;-62
2023/07/04 06:03:37;;;;;;;7.22;1.75;;;;;;;;;;5009929;28;20042;-61
2023/07/04 06:06:04;;;;;;;9.27;2.60;;;;;;;;;;5009687;28;20503;-59
2023/07/04 06:08:31;;;;;;;7.45;1.55;;;;;;;;;;5011329;28;20408;-58
2023/07/04 06:11:01;;;;;;;5.43;1.38;;;;;;;;;;5011600;28;20045;-64
2023/07/04 06:13:27;;;;;;;5.47;1.48;;;;;;;;;;5009669;28;20057;-60
2023/07/04 06:15:53;;;;;;;7.07;1.60;;;;;;;;;;5011437;28;20052;-61
2023/07/04 06:18:19;;;;;;;8.52;1.73;;;;;;;;;;5011911;28;20045;-58
2023/07/04 06:20:46;;;;;;;7.63;1.65;;;;;;;;;;5004068;28;20042;-63
2023/07/04 06:23:14;;;;;;;5.32;1.55;;;;;;;;;;5011878;28;20033;-60
2023/07/04 06:25:40;;;;;;;4.82;1.45;;;;;;;;;;5011412;28;20054;-60
2023/07/04 06:28:08;;;;;;;7.82;1.55;;;;;;;;;;5011506;28;20045;-60
2023/07/04 06:30:38;;;;;;;6.25;1.80;;;;;;;;;;5011577;28;20045;-60
2023/07/04 06:33:04;;;;;;;6.07;1.60;;;;;;;;;;5009452;28;20046;-59
2023/07/04 06:35:30;;;;;;;5.90;1.50;;;;;;;;;;5011671;28;20048;-60
2023/07/04 06:37:57;;;;;;;6.38;1.83;;;;;;;;;;5011010;28;20033;-58
2023/07/04 06:40:23;;;;;;;4.68;1.23;;;;;;;;;;5011579;28;20461;-60
2023/07/04 06:42:49;;;;;;;12.25;2.20;;;;;;;;;;5009582;28;20046;-60
2023/07/04 06:45:15;;;;;;;7.00;1.45;;;;;;;;;;5011271;28;20116;-58
2023/07/04 06:47:41;;;;;;;6.65;1.38;;;;;;;;;;5011164;28;20041;-58
2023/07/04 06:50:07;;;;;;;6.50;1.55;;;;;;;;;;5011327;28;20042;-61
2023/07/04 06:52:34;;;;;;;5.50;1.30;;;;;;;;;;5004615;28;20042;-58
2023/07/04 06:55:00;;;;;;;6.80;1.40;;;;;;;;;;5005431;28;20030;-57
2023/07/04 06:57:26;;;;;;;3.65;1.15;;;;;;;;;;5002672;28;20258;-62
2023/07/04 06:59:52;;;;;;;7.70;1.48;;;;;;;;;;5007818;28;20042;-59
2023/07/04 07:02:18;;;;;;;8.05;1.60;;;;;;;;;;5004037;28;20038;-58
2023/07/04 07:04:44;;;;;;;4.65;1.42;;;;;;;;;;5005022;28;20680;-61
2023/07/04 07:07:11;;;;;;;10.95;1.85;;;;;;;;;;5002993;28;20180;-61
2023/07/04 07:09:43;;;;;;;4.55;1.40;;;;;;;;;;5009751;28;20085;-64
2023/07/04 07:12:10;;;;;;;6.90;1.70;;;;;;;;;;5009803;28;20464;-64
2023/07/04 07:14:38;;;;;;;6.18;1.65;;;;;;;;;;5001376;28;20038;-63
2023/07/04 07:17:08;;;;;;;7.38;1.48;;;;;;;;;;5003719;28;20053;-61
2023/07/04 07:19:34;;;;;;;5.85;1.67;;;;;;;;;;5003410;28;20034;-60
2023/07/04 07:22:01;;;;;;;6.60;1.52;;;;;;;;;;4999559;28;20125;-61
2023/07/04 07:24:30;;;;;;;4.72;1.40;;;;;;;;;;5000115;28;20038;-59
2023/07/04 07:26:57;;;;;;;5.78;1.75;;;;;;;;;;5004757;28;20046;-61
2023/07/04 07:29:23;;;;;;;5.00;1.60;;;;;;;;;;5007013;28;20037;-61
2023/07/04 07:31:50;;;;;;;7.43;1.38;;;;;;;;;;5005322;28;20363;-60
2023/07/04 07:34:17;;;;;;;5.22;1.58;;;;;;;;;;5001965;28;20062;-58
2023/07/04 07:36:44;;;;;;;5.93;1.50;;;;;;;;;;5007338;28;20053;-63
2023/07/04 07:39:11;;;;;;;7.38;1.88;;;;;;;;;;4998328;28;20033;-60
2023/07/04 07:41:39;;;;;;;5.18;2.10;;;;;;;;;;5001185;28;20092;-61
2023/07/04 07:44:07;;;;;;;6.82;1.27;;;;;;;;;;5002827;28;20041;-63
2023/07/04 07:46:33;;;;;;;6.00;1.60;;;;;;;;;;5005321;28;20050;-62
2023/07/04 07:49:02;;;;;;;8.25;1.65;;;;;;;;;;5009950;28;20042;-60
2023/07/04 07:51:31;;;;;;;4.88;1.73;;;;;;;;;;5006451;28;20041;-60
2023/07/04 07:53:57;;;;;;;6.00;1.58;;;;;;;;;;5004369;28;20104;-59
2023/07/04 07:56:24;;;;;;;7.85;1.60;;;;;;;;;;5006960;28;20215;-59
2023/07/04 07:58:51;;;;;;;8.27;2.38;;;;;;;;;;5007689;28;20033;-61
2023/07/04 08:01:17;;;;;;;5.85;1.90;;;;;;;;;;5003275;28;21157;-60
2023/07/04 08:03:46;;;;;;;10.20;1.92;;;;;;;;;;4999917;28;20123;-59
2023/07/04 08:06:22;;;;;;;7.45;1.63;;;;;;;;;;5005445;28;20060;-60
2023/07/04 08:08:48;;;;;;;9.25;1.90;;;;;;;;;;5004007;28;20038;-64
2023/07/04 08:11:14;;;;;;;8.93;2.00;;;;;;;;;;5000552;28;20116;-61
2023/07/04 08:13:41;;;;;;;8.15;1.80;;;;;;;;;;5004122;28;20544;-59
2023/07/04 08:16:07;;;;;;;6.65;1.77;;;;;;;;;;4996652;28;20037;-60
2023/07/04 08:18:35;;;;;;;10.27;1.90;;;;;;;;;;5000256;28;20069;-59
2023/07/04 08:21:02;;;;;;;11.13;2.20;;;;;;;;;;5001988;28;20388;-60
2023/07/04 08:23:28;;;;;;;9.57;2.28;;;;;;;;;;5005670;28;20476;-55
2023/07/04 08:25:54;;;;;;;8.95;2.53;;;;;;;;;;5005219;28;20117;-58
2023/07/04 08:28:21;;;;;;;8.90;2.15;;;;;;;;;;5005534;28;20088;-58
2023/07/04 08:30:48;;;;;;;10.65;2.47;;;;;;;;;;5001487;28;20053;-62
2023/07/04 08:33:17;;;;;;;10.05;3.15;;;;;;;;;;5007805;28;20518;-61
2023/07/04 08:36:00;;;;;;;10.18;2.58;;;;;;;;;;5004796;28;20080;-55
2023/07/04 08:38:27;;;;;;;10.60;2.42;;;;;;;;;;5007206;28;20094;-59
2023/07/04 08:40:53;;;;;;;8.20;2.20;;;;;;;;;;5005697;28;20045;-58
2023/07/04 08:43:29;;;;;;;7.13;2.53;;;;;;;;;;5006134;28;20042;-63
2023/07/04 08:45:55;;;;;;;10.13;2.40;;;;;;;;;;5006695;28;20487;-61
2023/07/04 08:48:24;;;;;;;12.30;3.65;;;;;;;;;;5008345;28;20042;-59
2023/07/04 08:50:51;;;;;;;7.55;2.40;;;;;;;;;;5004753;28;20122;-60
2023/07/04 08:53:23;;;;;;;8.90;2.10;;;;;;;;;;4998855;28;20048;-60
2023/07/04 08:55:53;;;;;;;7.93;1.80;;;;;;;;;;5003556;28;20456;-60
2023/07/04 08:58:23;;;;;;;7.03;1.70;;;;;;;;;;5004904;28;20037;-59
2023/07/04 09:00:49;;;;;;;9.05;1.90;;;;;;;;;;5005889;28;20099;-58
2023/07/04 09:03:25;;;;;;;7.93;1.88;;;;;;;;;;5006073;28;20046;-56
2023/07/04 09:06:12;;;;;;;4.95;1.23;;;;;;;;;;5001228;28;20507;-60
2023/07/04 09:08:49;;;;;;;6.47;1.67;;;;;;;;;;4996606;28;20105;-61
2023/07/04 09:11:16;;;;;;;9.13;1.83;;;;;;;;;;5004049;28;20484;-58
2023/07/04 09:13:44;;;;;;;5.55;1.52;;;;;;;;;;5003833;28;20330;-63
2023/07/04 09:16:11;;;;;;;5.05;1.50;;;;;;;;;;4999458;28;20046;-58
2023/07/04 09:18:55;;;;;;;6.10;1.50;;;;;;;;;;5001241;28;20034;-58
2023/07/04 09:21:22;;;;;;;9.38;1.80;;;;;;;;;;5001455;28;20057;-61
2023/07/04 09:23:49;;;;;;;6.95;1.65;;;;;;;;;;5006557;28;20450;-60
2023/07/04 09:26:20;;;;;;;8.98;1.85;;;;;;;;;;5007348;28;20038;-61
2023/07/04 09:28:47;;;;;;;6.55;1.55;;;;;;;;;;5002981;28;20518;-61
2023/07/04 09:31:21;;;;;;;7.30;1.52;;;;;;;;;;5001312;28;20042;-64
2023/07/04 09:33:52;;;;;;;7.15;1.80;;;;;;;;;;5001129;28;20050;-61
2023/07/04 09:36:18;;;;;;;8.13;1.80;;;;;;;;;;5005183;28;20030;-63
2023/07/04 09:38:51;;;;;;;5.53;1.48;;;;;;;;;;5003808;28;20038;-58
2023/07/04 09:41:18;;;;;;;6.07;1.65;;;;;;;;;;5003675;28;20042;-59
2023/07/04 09:43:44;;;;;;;7.40;2.03;;;;;;;;;;5005353;28;20045;-62
2023/07/04 09:46:10;;;;;;;7.15;2.03;;;;;;;;;;5005483;28;20051;-61
2023/07/04 09:48:36;;;;;;;7.50;1.80;;;;;;;;;;5008866;28;20044;-63
2023/07/04 09:51:18;;;;;;;7.85;1.88;;;;;;;;;;5005935;28;20034;-61
2023/07/04 09:53:44;;;;;;;7.60;1.60;;;;;;;;;;4999887;28;20049;-61
2023/07/04 09:56:11;;;;;;;7.07;1.98;;;;;;;;;;5008240;28;20030;-61
2023/07/04 09:58:37;;;;;;;7.63;1.70;;;;;;;;;;5000393;28;20046;-62
2023/07/04 10:01:14;;;;;;;5.95;1.38;;;;;;;;;;5008794;28;20522;-62
2023/07/04 10:03:41;;;;;;;5.55;1.58;;;;;;;;;;5008046;28;20081;-60
2023/07/04 10:06:08;;;;;;;7.00;1.58;;;;;;;;;;5008636;28;20038;-58
2023/07/04 10:08:53;;;;;;;7.93;3.20;;;;;;;;;;5008892;28;20133;-61
2023/07/04 10:11:28;;;;;;;6.40;1.80;;;;;;;;;;5007993;28;20044;-61
2023/07/04 10:14:10;;;;;;;4.90;1.52;;;;;;;;;;5004635;28;20129;-61
2023/07/04 10:16:36;;;;;;;5.95;1.75;;;;;;;;;;5004184;28;20565;-59
2023/07/04 10:19:08;;;;;;;6.97;2.22;;;;;;;;;;5002826;28;20042;-60
2023/07/04 10:21:50;;;;;;;6.60;1.50;;;;;;;;;;4998315;28;20129;-62
2023/07/04 10:24:18;;;;;;;8.52;1.98;;;;;;;;;;5008218;28;20054;-63
2023/07/04 10:26:46;;;;;;;6.93;1.70;;;;;;;;;;5010262;28;20073;-61
2023/07/04 10:29:15;;;;;;;5.15;1.40;;;;;;;;;;5009475;28;20472;-58
2023/07/04 10:31:41;;;;;;;5.38;1.73;;;;;;;;;;5009452;28;20034;-60
2023/07/04 10:34:10;;;;;;;4.55;1.42;;;;;;;;;;5002251;28;20415;-60
2023/07/04 10:36:37;;;;;;;5.97;1.85;;;;;;;;;;5003900;28;20553;-59
2023/07/04 10:39:16;;;;;;;8.10;1.83;;;;;;;;;;5008197;28;20081;-58
2023/07/04 10:41:49;;;;;;;7.38;2.10;;;;;;;;;;5004842;28;20045;-57
2023/07/04 10:44:19;;;;;;;7.30;1.85;;;;;;;;;;5008614;28;20538;-58
2023/07/04 10:46:51;;;;;;;10.68;2.17;;;;;;;;;;5000764;28;20041;-59
2023/07/04 10:49:19;;;;;;;6.88;1.50;;;;;;;;;;5007242;28;20694;-57
2023/07/04 10:51:48;;;;;;;6.25;1.35;;;;;;;;;;5010556;28;20034;-58
2023/07/04 10:54:16;;;;;;;5.75;1.40;;;;;;;;;;5004390;28;20042;-60
2023/07/04 10:57:02;;;;;;;8.10;1.73;;;;;;;;;;5002512;28;20088;-60
2023/07/04 10:59:30;;;;;;;4.55;1.42;;;;;;;;;;5000634;28;20408;-61
2023/07/04 11:02:24;;;;;;;4.75;1.42;;;;;;;;;;4996129;28;20468;-58
2023/07/04 11:04:51;;;;;;;5.82;1.60;;;;;;;;;;4996412;28;20430;-59
2023/07/04 11:07:20;;;;;;;6.57;1.73;;;;;;;;;;5009903;28;20271;-59
2023/07/04 11:09:49;;;;;;;7.40;2.13;;;;;;;;;;4990063;28;20046;-57
2023/07/04 11:12:17;;;;;;;9.23;1.83;;;;;;;;;;5000470;28;20090;-60
2023/07/04 11:14:46;;;;;;;7.28;1.80;;;;;;;;;;5002531;28;20118;-58
2023/07/04 11:17:20;;;;;;;9.50;1.45;;;;;;;;;;5007180;28;20121;-61
2023/07/04 11:20:11;;;;;;;6.37;2.23;;;;;;;;;;5005380;28;20042;-62
2023/07/04 11:22:54;;;;;;;8.18;1.80;;;;;;;;;;5007188;28;20038;-58
2023/07/04 11:25:34;;;;;;;6.55;1.85;;;;;;;;;;5004951;28;20030;-59
2023/07/04 11:28:12;;;;;;;8.00;1.60;;;;;;;;;;5004782;28;20042;-60
2023/07/04 11:30:40;;;;;;;9.15;2.00;;;;;;;;;;5007357;28;20499;-59
2023/07/04 11:33:08;;;;;;;7.10;1.50;;;;;;;;;;5007312;28;20124;-57
2023/07/04 11:35:44;;;;;;;6.38;1.58;;;;;;;;;;5009576;28;20046;-60
2023/07/04 11:38:15;;;;;;;5.32;1.70;;;;;;;;;;5000460;28;20037;-60
2023/07/04 11:40:46;;;;;;;5.35;1.50;;;;;;;;;;5003225;28;20400;-62
2023/07/04 11:43:24;;;;;;;8.48;1.40;;;;;;;;;;5006131;28;20495;-59
2023/07/04 11:45:55;;;;;;;5.50;1.45;;;;;;;;;;5005160;28;20416;-63
2023/07/04 11:48:23;;;;;;;7.32;1.80;;;;;;;;;;5008372;28;20050;-62
2023/07/04 11:50:51;;;;;;;11.40;2.00;;;18.30;99.90;;;;;;5006216;28;20050;-63
2023/07/04 11:53:25;;;;;;;6.32;1.63;;;;;;;;;;5006507;28;20042;-60
2023/07/04 11:56:09;;;;;;;4.97;1.47;;;;;;;;;;5001737;28;20122;-59
2023/07/04 11:58:35;;;;;;;6.40;1.67;;;18.70;99.90;;;;;;5004663;28;20046;-61
2023/07/04 12:01:02;;;;;;;7.32;1.60;;;18.80;99.90;;;;;;4988174;28;20124;-63
2023/07/04 12:03:28;;;;;;;5.90;1.40;;;18.80;99.90;;;;;;5001262;28;20046;-62
2023/07/04 12:05:57;;;;;;;7.40;1.77;;;18.60;99.90;;;;;;5004966;28;20034;-60
2023/07/04 12:08:29;;;;;;;5.63;1.65;;;;;;;;;;5005259;28;20488;-60
2023/07/04 12:11:01;;;;;;;4.80;1.27;;;19.10;99.90;;;;;;5006733;28;20082;-62
2023/07/04 12:13:30;;;;;;;7.93;2.03;;;;;;;;;;5001275;28;20112;-62
2023/07/04 12:15:57;;;;;;;6.43;1.92;;;19.10;99.90;;;;;;4999308;28;20038;-61
2023/07/04 12:18:25;;;;;;;5.97;1.60;;;18.80;99.90;;;;;;5000263;28;20104;-60
2023/07/04 12:20:51;;;;;;;9.93;1.63;;;19.00;99.90;;;;;;5005505;28;20137;-60
2023/07/04 12:23:17;;;;;;;8.77;1.50;;;19.10;99.90;;;;;;5007655;28;20042;-60
2023/07/04 12:25:46;;;;;;;9.05;2.03;;;;;;;;;;5003457;28;20344;-61
2023/07/04 12:28:13;;;;;;;7.07;1.88;;;19.70;99.90;;;;;;5001279;28;20052;-63
2023/07/04 12:31:14;;;;;;;6.53;1.67;;;19.60;99.90;;;;;;5004306;28;20056;-61
2023/07/04 12:33:44;;;;;;;6.30;1.67;;;19.90;99.90;;;;;;4960626;28;20060;-61
2023/07/04 12:36:12;;;;;;;6.18;2.05;;;;;;;;;;5006128;28;20060;-60
2023/07/04 12:38:46;;;;;;;7.47;1.80;;;19.70;99.90;;;;;;5001054;28;20513;-64
2023/07/04 12:41:16;;;;;;;6.28;1.75;;;;;;;;;;5006500;28;20066;-60
2023/07/04 12:43:43;;;;;;;8.20;2.20;;;20.10;99.90;;;;;;5005016;28;20042;-61
2023/07/04 12:46:15;;;;;;;7.00;1.65;;;21.00;99.90;;;;;;5001554;28;20268;-56
2023/07/04 12:48:42;;;;;;;7.18;2.10;;;22.20;99.90;;;;;;5007061;28;20407;-64
2023/07/04 12:51:13;;;;;;;7.47;2.13;;;21.10;99.90;;;;;;5006281;28;20026;-58
2023/07/04 12:53:42;;;;;;;5.25;1.50;;;21.20;99.90;;;;;;5001451;28;20041;-59
2023/07/04 12:56:10;;;;;;;8.27;2.00;;;21.90;99.90;;;;;;5005414;28;20034;-61
2023/07/04 12:58:40;;;;;;;6.45;1.58;;;22.10;97.80;;;;;;5003231;28;20061;-63
2023/07/04 13:01:08;;;;;;;7.70;1.83;;;22.80;66.70;;;;;;5007648;28;20041;-60
2023/07/04 13:03:35;;;;;;;5.82;1.35;;;22.30;9.90;;;;;;5000281;28;20507;-62
2023/07/04 13:06:02;;;;;;;6.38;1.70;;;22.50;1.00;;;;;;5000264;28;20389;-58
2023/07/04 13:08:30;;;;;;;7.60;1.85;;;22.40;1.00;;;;;;5001390;28;20037;-59
2023/07/04 13:11:00;;;;;;;10.40;2.33;;;22.40;1.00;;;;;;4996579;28;20053;-59
2023/07/04 13:13:34;;;;;;;6.45;1.60;;;22.20;1.00;;;;;;5007822;28;20073;-58
2023/07/04 13:16:28;;;;;;;7.47;2.03;;;22.50;1.00;;;;;;5004890;28;20099;-60
2023/07/04 13:18:55;;;;;;;7.43;1.73;;;22.50;1.00;;;;;;5003638;28;20034;-60
2023/07/04 13:21:34;;;;;;;9.02;2.45;;;22.20;1.00;;;;;;5004226;28;20026;-62
2023/07/04 13:24:02;;;;;;;9.05;1.90;;;22.20;1.00;;;;;;5003827;28;20035;-58
2023/07/04 13:26:33;;;;;;;9.38;2.38;;;22.10;1.00;;;;;;5010761;28;20484;-60
2023/07/04 13:29:14;;;;;;;6.50;1.80;;;22.00;1.00;;;;;;5008172;28;20123;-63
2023/07/04 13:31:40;;;;;;;5.72;1.50;;;22.10;1.00;;;;;;5006873;28;20034;-58
2023/07/04 13:34:27;;;;;;;9.23;2.25;;;21.90;1.00;;;;;;5007423;28;20049;-62
2023/07/04 13:36:55;;;;;;;5.88;2.00;;;22.00;1.00;;;;;;5002644;28;20117;-57
2023/07/04 13:39:21;;;;;;;7.30;1.83;;;21.60;1.00;;;;;;5009280;28;20045;-57
2023/07/04 13:41:49;;;;;;;6.15;1.77;;;21.70;1.00;;;;;;5010736;28;20037;-61
2023/07/04 13:44:16;;;;;;;11.00;2.28;;;21.80;1.00;;;;;;5005942;28;20084;-60
2023/07/04 13:46:42;;;;;;;9.48;2.10;;;;;;;;;;5004861;28;20056;-58
2023/07/04 13:49:08;;;;;;;8.75;2.22;;;21.10;1.00;;;;;;5004172;28;20153;-61
2023/07/04 13:51:34;;;;;;;10.30;2.50;;;21.00;1.00;;;;;;5010986;28;20606;-62
2023/07/04 13:54:01;;;;;;;9.80;2.17;;;21.30;1.00;;;;;;5008241;28;20048;-60
2023/07/04 13:56:27;;;;;;;7.78;2.38;;;21.20;1.00;;;;;;5005636;28;20046;-61
2023/07/04 13:58:55;;;;;;;10.40;2.53;;;21.20;1.00;;;;;;5009525;28;20092;-60
2023/07/04 14:01:21;;;;;;;9.70;1.70;;;21.10;1.00;;;;;;5008121;28;20045;-62
2023/07/04 14:03:47;;;;;;;10.00;2.28;;;21.20;1.00;;;;;;5008532;28;20097;-59
2023/07/04 14:06:14;;;;;;;9.35;2.20;;;21.30;1.00;;;;;;5008044;28;20451;-63
2023/07/04 14:08:42;;;;;;;6.57;1.83;;;21.30;1.00;;;;;;5013523;28;20054;-61
2023/07/04 14:11:15;;;;;;;9.70;2.00;;;21.40;1.00;;;;;;4998079;28;20511;-62
2023/07/04 14:18:44;;;;;;;8.65;2.53;;;21.70;1.00;;;;;;5017533;28;20058;-59
2023/07/04 14:23:38;;;;;;;9.55;2.28;;;21.60;1.00;;;;;;5007052;28;20049;-59
2023/07/04 14:26:12;;;;;;;5.68;1.80;;;21.60;1.00;;;;;;5004540;28;20042;-58
2023/07/04 14:28:38;;;;;;;8.23;1.90;;;21.30;1.00;;;;;;5013341;28;20037;-61
2023/07/04 14:31:05;;;;;;;7.40;1.80;;;21.70;1.00;;;;;;5016089;28;20404;-58
2023/07/04 14:33:31;;;;;;;8.30;1.92;;;21.40;1.00;;;;;;5003239;28;20081;-58
2023/07/04 14:38:25;;;;;;;8.13;2.22;;;21.50;1.00;;;;;;4986871;28;20088;-58
2023/07/04 14:40:51;;;;;;;8.60;2.75;;;21.40;1.00;;;;;;4991291;28;20057;-60